createdAt,value
2018-10-03T00:01:22.238Z,11.80
2018-10-03T00:03:50.295Z,11.70
2018-10-03T00:06:18.330Z,11.70
2018-10-03T00:08:46.403Z,11.70
2018-10-03T00:11:14.428Z,11.70
2018-10-03T00:13:42.447Z,11.60
2018-10-03T00:16:10.588Z,11.50
2018-10-03T00:18:38.651Z,11.50
2018-10-03T00:21:06.685Z,11.50
2018-10-03T00:23:34.921Z,11.40
2018-10-03T00:26:03.081Z,11.50
2018-10-03T00:28:31.122Z,11.50
2018-10-03T00:30:59.339Z,11.50
2018-10-03T00:33:27.397Z,11.50
2018-10-03T00:35:55.480Z,11.50
2018-10-03T00:38:23.541Z,11.50
2018-10-03T00:40:51.658Z,11.50
2018-10-03T00:43:20.892Z,11.50
2018-10-03T00:45:49.041Z,11.50
2018-10-03T00:48:17.066Z,11.50
2018-10-03T00:50:45.084Z,11.30
2018-10-03T00:53:13.150Z,11.30
2018-10-03T00:55:41.180Z,11.20
2018-10-03T00:58:09.191Z,11.20
2018-10-03T01:00:37.604Z,11.20
2018-10-03T01:03:05.667Z,11.20
2018-10-03T01:05:33.726Z,11.20
2018-10-03T01:08:01.935Z,11.20
2018-10-03T01:10:30.107Z,11.20
2018-10-03T01:12:58.319Z,11.30
2018-10-03T01:15:26.368Z,11.30
2018-10-03T01:17:54.445Z,11.30
2018-10-03T01:20:22.507Z,11.40
2018-10-03T01:22:50.558Z,11.40
2018-10-03T01:25:18.592Z,11.40
2018-10-03T01:27:46.795Z,11.50
2018-10-03T01:30:14.826Z,11.50
2018-10-03T01:32:42.870Z,11.50
2018-10-03T01:35:10.870Z,11.50
2018-10-03T01:37:39.074Z,11.50
2018-10-03T01:40:07.135Z,11.50
2018-10-03T01:42:35.190Z,11.40
2018-10-03T01:45:03.899Z,11.40
2018-10-03T01:47:31.937Z,11.30
2018-10-03T01:49:59.948Z,11.30
2018-10-03T01:52:28.133Z,11.30
2018-10-03T01:54:56.175Z,11.20
2018-10-03T01:57:24.203Z,11.10
2018-10-03T01:59:52.320Z,11.10
2018-10-03T02:02:20.397Z,11.00
2018-10-03T02:04:48.475Z,10.90
2018-10-03T02:07:16.511Z,10.90
2018-10-03T02:09:44.615Z,10.80
2018-10-03T02:12:12.713Z,10.80
2018-10-03T02:14:41.010Z,10.80
2018-10-03T02:17:09.036Z,10.80
2018-10-03T02:19:37.097Z,10.80
2018-10-03T02:22:05.187Z,10.90
2018-10-03T02:24:33.215Z,10.90
2018-10-03T02:27:01.305Z,10.90
2018-10-03T02:29:29.594Z,10.80
2018-10-03T02:31:57.662Z,10.80
2018-10-03T02:34:25.867Z,10.90
2018-10-03T02:36:53.957Z,10.90
2018-10-03T02:39:22.116Z,10.90
2018-10-03T02:41:50.229Z,10.80
2018-10-03T02:44:18.514Z,10.80
2018-10-03T02:46:47.044Z,10.80
2018-10-03T02:49:15.061Z,10.80
2018-10-03T02:51:43.448Z,10.90
2018-10-03T02:54:11.487Z,11.00
2018-10-03T02:56:39.501Z,11.10
2018-10-03T02:59:07.681Z,11.10
2018-10-03T03:01:35.746Z,11.10
2018-10-03T03:04:03.730Z,11.10
2018-10-03T03:06:31.915Z,11.10
2018-10-03T03:09:00.036Z,11.10
2018-10-03T03:11:27.999Z,11.00
2018-10-03T03:13:56.302Z,10.90
2018-10-03T03:16:24.582Z,10.80
2018-10-03T03:18:52.618Z,10.80
2018-10-03T03:21:20.707Z,10.80
2018-10-03T03:23:48.772Z,10.80
2018-10-03T03:26:16.812Z,10.70
2018-10-03T03:28:44.874Z,10.70
2018-10-03T03:31:12.906Z,10.60
2018-10-03T03:33:40.919Z,10.60
2018-10-03T03:36:08.984Z,10.60
2018-10-03T03:38:37.002Z,10.60
2018-10-03T03:41:05.092Z,10.60
2018-10-03T03:43:33.127Z,10.60
2018-10-03T03:46:01.235Z,10.60
2018-10-03T03:48:29.678Z,10.70
2018-10-03T03:50:57.995Z,10.70
2018-10-03T03:53:26.029Z,10.70
2018-10-03T03:55:54.043Z,10.70
2018-10-03T03:58:22.613Z,10.60
2018-10-03T04:00:50.603Z,10.60
2018-10-03T04:03:18.619Z,10.60
2018-10-03T04:05:46.825Z,10.60
2018-10-03T04:08:14.870Z,10.70
2018-10-03T04:10:43.059Z,10.70
2018-10-03T04:13:11.162Z,10.70
2018-10-03T04:15:39.179Z,10.80
2018-10-03T04:18:07.244Z,10.80
2018-10-03T04:20:35.306Z,10.80
2018-10-03T04:23:03.325Z,10.80
2018-10-03T04:25:31.350Z,10.80
2018-10-03T04:27:59.529Z,10.80
2018-10-03T04:30:27.582Z,10.80
2018-10-03T04:32:55.586Z,10.80
2018-10-03T04:35:23.680Z,10.80
2018-10-03T04:37:51.770Z,10.80
2018-10-03T04:40:19.861Z,10.90
2018-10-03T04:42:48.103Z,10.90
2018-10-03T04:45:16.130Z,10.90
2018-10-03T04:47:44.230Z,10.90
2018-10-03T04:50:12.566Z,11.00
2018-10-03T04:52:40.574Z,11.00
2018-10-03T04:55:08.698Z,11.00
2018-10-03T04:57:36.738Z,11.00
2018-10-03T05:00:04.750Z,10.90
2018-10-03T05:02:32.774Z,10.90
2018-10-03T05:05:00.827Z,10.90
2018-10-03T05:07:28.911Z,10.80
2018-10-03T05:09:56.924Z,10.80
2018-10-03T05:12:25.121Z,10.80
2018-10-03T05:14:53.282Z,10.90
2018-10-03T05:17:21.443Z,10.90
2018-10-03T05:19:49.618Z,11.00
2018-10-03T05:22:17.681Z,11.00
2018-10-03T05:24:46.407Z,11.00
2018-10-03T05:27:14.519Z,11.00
2018-10-03T05:29:42.535Z,11.00
2018-10-03T05:32:10.557Z,11.00
2018-10-03T05:34:39.021Z,11.10
2018-10-03T05:37:07.299Z,11.10
2018-10-03T05:39:35.356Z,11.10
2018-10-03T05:42:03.342Z,11.10
2018-10-03T05:44:31.459Z,11.10
2018-10-03T05:46:59.593Z,11.10
2018-10-03T05:49:27.860Z,11.10
2018-10-03T05:51:56.134Z,11.10
2018-10-03T05:54:24.204Z,11.10
2018-10-03T05:56:52.558Z,11.10
2018-10-03T05:59:20.596Z,11.20
2018-10-03T06:01:48.618Z,11.20
2018-10-03T06:04:16.927Z,11.20
2018-10-03T06:06:44.988Z,11.20
2018-10-03T06:09:13.542Z,11.20
2018-10-03T06:11:42.574Z,11.30
2018-10-03T06:14:11.008Z,11.30
2018-10-03T06:16:39.074Z,11.30
2018-10-03T06:19:07.158Z,11.30
2018-10-03T06:21:35.542Z,11.40
2018-10-03T06:24:04.022Z,11.40
2018-10-03T06:26:32.206Z,11.40
2018-10-03T06:29:00.262Z,11.40
2018-10-03T06:31:28.335Z,11.60
2018-10-03T06:33:57.559Z,11.80
2018-10-03T06:36:25.607Z,12.10
2018-10-03T06:38:53.647Z,12.90
2018-10-03T06:41:21.677Z,13.10
2018-10-03T06:43:49.773Z,13.00
2018-10-03T06:46:17.921Z,12.80
2018-10-03T06:48:46.013Z,12.60
2018-10-03T06:51:14.073Z,12.40
2018-10-03T06:53:42.456Z,12.20
2018-10-03T06:56:10.894Z,12.20
2018-10-03T06:58:38.975Z,12.10
2018-10-03T07:01:06.986Z,12.10
2018-10-03T07:03:35.000Z,12.10
2018-10-03T07:06:03.070Z,12.00
2018-10-03T07:08:31.067Z,11.90
2018-10-03T07:10:59.091Z,11.90
2018-10-03T07:13:27.099Z,11.90
2018-10-03T07:15:55.121Z,12.00
2018-10-03T07:18:23.333Z,12.00
2018-10-03T07:20:51.347Z,12.10
2018-10-03T07:23:19.343Z,12.30
2018-10-03T07:25:47.466Z,12.40
2018-10-03T07:28:17.218Z,12.40
2018-10-03T07:30:45.282Z,12.40
2018-10-03T07:33:13.296Z,12.40
2018-10-03T07:35:41.327Z,12.50
2018-10-03T07:38:09.852Z,13.10
2018-10-03T07:40:38.143Z,13.60
2018-10-03T07:43:06.878Z,13.80
2018-10-03T07:45:35.096Z,13.80
2018-10-03T07:48:03.158Z,13.70
2018-10-03T07:50:31.194Z,14.70
2018-10-03T07:52:59.339Z,15.10
2018-10-03T07:55:27.986Z,15.40
2018-10-03T07:57:56.275Z,16.90
2018-10-03T08:00:26.398Z,18.10
2018-10-03T08:02:54.463Z,19.10
2018-10-03T08:05:22.526Z,20.10
2018-10-03T08:07:50.698Z,19.90
2018-10-03T08:10:19.110Z,19.30
2018-10-03T08:12:48.031Z,18.80
2018-10-03T08:15:16.656Z,18.90
2018-10-03T08:17:44.934Z,18.30
2018-10-03T08:20:13.034Z,18.90
2018-10-03T08:22:41.478Z,20.20
2018-10-03T08:25:09.716Z,21.70
2018-10-03T08:27:37.742Z,21.70
2018-10-03T08:30:05.810Z,20.50
2018-10-03T08:32:33.884Z,18.90
2018-10-03T08:35:01.908Z,18.00
2018-10-03T08:37:30.112Z,18.80
2018-10-03T08:39:58.631Z,19.70
2018-10-03T08:42:26.650Z,20.10
2018-10-03T08:44:54.646Z,20.90
2018-10-03T08:47:22.810Z,21.60
2018-10-03T08:49:50.895Z,20.90
2018-10-03T08:52:18.972Z,19.50
2018-10-03T08:54:47.264Z,18.80
2018-10-03T08:57:15.718Z,18.70
2018-10-03T08:59:43.781Z,17.90
2018-10-03T09:02:11.915Z,17.60
2018-10-03T09:04:40.129Z,17.60
2018-10-03T09:07:08.207Z,17.20
2018-10-03T09:09:36.262Z,16.90
2018-10-03T09:12:04.277Z,16.40
2018-10-03T09:14:32.322Z,15.90
2018-10-03T09:17:00.459Z,15.80
2018-10-03T09:19:28.559Z,15.80
2018-10-03T09:21:57.312Z,15.70
2018-10-03T09:24:25.506Z,15.70
2018-10-03T09:26:53.578Z,15.70
2018-10-03T09:29:21.580Z,15.50
2018-10-03T09:31:51.058Z,15.30
2018-10-03T09:34:19.431Z,16.30
2018-10-03T09:36:48.418Z,16.50
2018-10-03T09:39:16.490Z,16.20
2018-10-03T09:41:44.565Z,15.60
2018-10-03T09:44:12.602Z,15.60
2018-10-03T09:46:41.730Z,16.70
2018-10-03T09:49:09.844Z,17.60
2018-10-03T09:51:38.104Z,17.20
2018-10-03T09:54:06.286Z,16.80
2018-10-03T09:56:34.536Z,17.60
2018-10-03T09:59:03.014Z,17.90
2018-10-03T10:01:32.510Z,17.50
2018-10-03T10:04:02.251Z,16.80
2018-10-03T10:06:31.987Z,16.30
2018-10-03T10:09:00.256Z,16.70
2018-10-03T10:11:28.434Z,17.20
2018-10-03T10:13:56.466Z,17.00
2018-10-03T10:16:24.506Z,16.50
2018-10-03T10:18:52.833Z,16.10
2018-10-03T10:21:21.509Z,16.10
2018-10-03T10:23:49.617Z,16.20
2018-10-03T10:26:17.762Z,16.20
2018-10-03T10:28:45.797Z,15.90
2018-10-03T10:31:13.870Z,15.80
2018-10-03T10:33:42.046Z,15.70
2018-10-03T10:36:10.149Z,15.80
2018-10-03T10:38:38.213Z,15.70
2018-10-03T10:41:06.296Z,15.60
2018-10-03T10:43:34.411Z,15.60
2018-10-03T10:46:02.370Z,15.80
2018-10-03T10:48:30.366Z,16.00
2018-10-03T10:50:58.524Z,16.10
2018-10-03T10:53:26.567Z,15.90
2018-10-03T10:55:54.681Z,15.60
2018-10-03T10:58:23.162Z,15.10
2018-10-03T11:00:52.254Z,14.90
2018-10-03T11:03:20.384Z,14.80
2018-10-03T11:05:48.502Z,14.70
2018-10-03T11:08:16.638Z,14.60
2018-10-03T11:10:44.756Z,14.80
2018-10-03T11:13:12.782Z,15.10
2018-10-03T11:15:40.835Z,15.50
2018-10-03T11:18:08.903Z,15.80
2018-10-03T11:20:37.649Z,15.80
2018-10-03T11:23:05.863Z,15.70
2018-10-03T11:25:33.857Z,15.50
2018-10-03T11:28:01.887Z,14.80
2018-10-03T11:30:29.937Z,14.20
2018-10-03T11:32:58.242Z,13.80
2018-10-03T11:35:27.362Z,13.40
2018-10-03T11:37:55.542Z,13.20
2018-10-03T11:40:24.175Z,13.30
2018-10-03T11:42:52.239Z,13.50
2018-10-03T11:45:20.291Z,13.70
2018-10-03T11:47:48.405Z,13.80
2018-10-03T11:50:16.858Z,13.80
2018-10-03T11:52:44.861Z,13.70
2018-10-03T11:55:13.003Z,13.80
2018-10-03T11:57:41.069Z,13.90
2018-10-03T12:00:09.080Z,14.00
2018-10-03T12:02:37.412Z,14.10
2018-10-03T12:05:05.518Z,14.20
2018-10-03T12:07:33.566Z,14.20
2018-10-03T12:10:01.602Z,14.30
2018-10-03T12:12:29.919Z,14.30
2018-10-03T12:14:57.972Z,14.30
2018-10-03T12:17:26.062Z,14.30
2018-10-03T12:19:54.131Z,14.40
2018-10-03T12:22:22.142Z,14.50
2018-10-03T12:24:50.166Z,14.40
2018-10-03T12:27:18.347Z,14.40
2018-10-03T12:29:46.420Z,14.20
2018-10-03T12:32:14.483Z,14.10
2018-10-03T12:34:42.526Z,14.20
2018-10-03T12:37:10.566Z,14.30
2018-10-03T12:39:38.570Z,14.30
2018-10-03T12:42:06.819Z,14.40
2018-10-03T12:44:34.910Z,14.40
2018-10-03T12:47:02.961Z,14.50
2018-10-03T12:49:31.124Z,14.60
2018-10-03T12:51:59.270Z,14.60
2018-10-03T12:54:27.510Z,14.70
2018-10-03T12:56:55.641Z,14.90
2018-10-03T12:59:23.682Z,15.10
2018-10-03T13:01:51.749Z,15.30
2018-10-03T13:04:20.020Z,15.40
2018-10-03T13:06:48.078Z,15.20
2018-10-03T13:09:16.993Z,15.00
2018-10-03T13:11:45.310Z,14.80
2018-10-03T13:14:13.929Z,14.60
2018-10-03T13:16:41.927Z,14.40
2018-10-03T13:19:10.107Z,14.50
2018-10-03T13:21:38.678Z,14.70
2018-10-03T13:24:07.201Z,15.00
2018-10-03T13:26:35.580Z,15.30
2018-10-03T13:29:03.806Z,15.30
2018-10-03T13:31:31.974Z,15.30
2018-10-03T13:34:00.365Z,15.30
2018-10-03T13:36:28.444Z,15.40
2018-10-03T13:38:56.599Z,15.40
2018-10-03T13:41:24.786Z,15.40
2018-10-03T13:43:52.722Z,15.30
2018-10-03T13:46:20.919Z,15.00
2018-10-03T13:48:48.957Z,14.90
2018-10-03T13:51:16.983Z,14.70
2018-10-03T13:53:45.000Z,14.60
2018-10-03T13:56:15.104Z,14.60
2018-10-03T13:58:43.219Z,14.60
2018-10-03T14:01:11.447Z,14.60
2018-10-03T14:03:39.547Z,14.60
2018-10-03T14:06:07.863Z,14.60
2018-10-03T14:08:36.060Z,14.60
2018-10-03T14:11:04.178Z,14.60
2018-10-03T14:13:32.185Z,14.60
2018-10-03T14:16:00.398Z,14.60
2018-10-03T14:18:28.543Z,14.70
2018-10-03T14:20:56.677Z,14.60
2018-10-03T14:23:24.730Z,14.60
2018-10-03T14:25:52.810Z,14.70
2018-10-03T14:28:20.902Z,14.60
2018-10-03T14:30:48.947Z,14.60
2018-10-03T14:33:17.105Z,14.60
2018-10-03T14:35:45.129Z,14.70
2018-10-03T14:38:13.490Z,14.70
2018-10-03T14:40:41.658Z,14.70
2018-10-03T14:43:09.787Z,14.70
2018-10-03T14:45:37.811Z,14.60
2018-10-03T14:48:05.734Z,14.60
2018-10-03T14:50:33.764Z,14.50
2018-10-03T14:53:02.091Z,14.50
2018-10-03T14:55:30.306Z,14.50
2018-10-03T14:57:58.323Z,14.40
2018-10-03T15:00:26.420Z,14.40
2018-10-03T15:02:54.548Z,14.30
2018-10-03T15:05:22.604Z,14.30
2018-10-03T15:07:51.063Z,14.20
2018-10-03T15:10:19.131Z,14.20
2018-10-03T15:12:47.214Z,14.20
2018-10-03T15:15:15.613Z,14.10
2018-10-03T15:17:43.718Z,14.00
2018-10-03T15:20:11.773Z,14.00
2018-10-03T15:22:39.907Z,13.90
2018-10-03T15:25:08.180Z,13.90
2018-10-03T15:27:36.370Z,13.80
2018-10-03T15:30:04.685Z,13.80
2018-10-03T15:32:32.738Z,13.70
2018-10-03T15:35:00.788Z,13.70
2018-10-03T15:37:28.860Z,13.60
2018-10-03T15:39:56.844Z,13.60
2018-10-03T15:42:24.842Z,13.50
2018-10-03T15:44:53.156Z,13.50
2018-10-03T15:47:21.207Z,13.50
2018-10-03T15:49:49.190Z,13.40
2018-10-03T15:52:17.225Z,13.40
2018-10-03T15:54:45.240Z,13.40
2018-10-03T15:57:13.266Z,13.30
2018-10-03T15:59:41.685Z,13.20
2018-10-03T16:02:09.683Z,13.20
2018-10-03T16:04:37.736Z,13.20
2018-10-03T16:07:05.809Z,13.10
2018-10-03T16:09:34.415Z,13.10
2018-10-03T16:12:02.350Z,13.00
2018-10-03T16:14:30.410Z,12.90
2018-10-03T16:16:58.436Z,12.80
2018-10-03T16:19:26.431Z,12.70
2018-10-03T16:21:54.482Z,12.70
2018-10-03T16:24:22.544Z,12.60
2018-10-03T16:26:50.666Z,12.60
2018-10-03T16:29:19.606Z,12.50
2018-10-03T16:31:47.625Z,12.50
2018-10-03T16:34:15.645Z,12.30
2018-10-03T16:36:43.881Z,12.30
2018-10-03T16:39:12.256Z,12.20
2018-10-03T16:41:40.246Z,12.10
2018-10-03T16:44:08.703Z,12.10
2018-10-03T16:46:36.732Z,12.00
2018-10-03T16:49:04.726Z,11.90
2018-10-03T16:51:32.922Z,11.90
2018-10-03T16:54:00.983Z,11.90
2018-10-03T16:56:29.064Z,11.80
2018-10-03T16:58:58.119Z,11.80
2018-10-03T17:01:26.199Z,11.70
2018-10-03T17:03:54.266Z,11.70
2018-10-03T17:06:22.286Z,11.60
2018-10-03T17:08:50.550Z,11.60
2018-10-03T17:11:19.324Z,11.60
2018-10-03T17:13:58.723Z,11.50
2018-10-03T17:16:26.740Z,11.50
2018-10-03T17:18:54.741Z,11.50
2018-10-03T17:21:22.858Z,11.40
2018-10-03T17:23:50.815Z,11.40
2018-10-03T17:26:18.828Z,11.40
2018-10-03T17:28:46.974Z,11.30
2018-10-03T17:31:15.050Z,11.30
2018-10-03T17:33:53.988Z,11.30
2018-10-03T17:36:22.043Z,11.20
2018-10-03T17:38:50.239Z,11.20
2018-10-03T17:41:18.615Z,11.20
2018-10-03T17:43:46.636Z,11.20
2018-10-03T17:46:14.618Z,11.20
2018-10-03T17:48:42.998Z,11.20
2018-10-03T17:51:11.104Z,11.20
2018-10-03T17:53:39.215Z,11.20
2018-10-03T17:56:07.656Z,11.20
2018-10-03T17:58:38.363Z,11.30
2018-10-03T18:01:06.416Z,11.30
2018-10-03T18:03:34.521Z,11.40
2018-10-03T18:06:02.545Z,11.50
2018-10-03T18:08:30.609Z,11.60
2018-10-03T18:10:58.683Z,11.60
2018-10-03T18:13:26.966Z,11.70
2018-10-03T18:15:55.012Z,11.70
2018-10-03T18:18:23.070Z,11.70
2018-10-03T18:20:51.215Z,11.70
2018-10-03T18:23:19.344Z,11.60
2018-10-03T18:25:47.639Z,11.60
2018-10-03T18:28:15.603Z,11.50
2018-10-03T18:30:44.046Z,11.50
2018-10-03T18:33:12.118Z,11.40
2018-10-03T18:35:40.116Z,11.40
2018-10-03T18:38:08.152Z,11.40
2018-10-03T18:40:36.185Z,11.30
2018-10-03T18:43:04.180Z,11.20
2018-10-03T18:45:32.298Z,11.10
2018-10-03T18:48:00.376Z,11.10
2018-10-03T18:50:28.370Z,11.00
2018-10-03T18:52:56.676Z,11.00
2018-10-03T18:55:24.786Z,11.00
2018-10-03T18:57:52.788Z,10.90
2018-10-03T19:00:20.909Z,10.90
2018-10-03T19:02:48.914Z,10.90
2018-10-03T19:05:16.902Z,10.80
2018-10-03T19:07:45.054Z,10.80
2018-10-03T19:10:13.078Z,10.80
2018-10-03T19:12:41.482Z,10.80
2018-10-03T19:15:09.918Z,10.80
2018-10-03T19:17:37.958Z,10.80
2018-10-03T19:20:06.239Z,10.70
2018-10-03T19:22:34.759Z,10.60
2018-10-03T19:25:02.784Z,10.60
2018-10-03T19:27:30.790Z,10.60
2018-10-03T19:29:58.987Z,10.60
2018-10-03T19:32:27.284Z,10.60
2018-10-03T19:34:55.347Z,10.50
2018-10-03T19:37:23.598Z,10.50
2018-10-03T19:39:51.773Z,10.50
2018-10-03T19:42:19.865Z,10.40
2018-10-03T19:44:48.050Z,10.40
2018-10-03T19:47:16.111Z,10.40
2018-10-03T19:49:44.234Z,10.40
2018-10-03T19:52:12.367Z,10.40
2018-10-03T19:54:40.363Z,10.40
2018-10-03T19:57:08.790Z,10.30
2018-10-03T19:59:36.829Z,10.20
2018-10-03T20:02:04.843Z,10.20
2018-10-03T20:04:32.867Z,10.20
2018-10-03T20:07:01.030Z,10.20
2018-10-03T20:09:29.139Z,10.20
2018-10-03T20:11:57.201Z,10.10
2018-10-03T20:14:25.270Z,10.10
2018-10-03T20:16:53.434Z,10.10
2018-10-03T20:19:21.622Z,10.10
2018-10-03T20:21:49.853Z,10.10
2018-10-03T20:24:17.920Z,10.00
2018-10-03T20:26:45.985Z,10.00
2018-10-03T20:29:14.144Z,10.00
2018-10-03T20:31:42.155Z,10.00
2018-10-03T20:34:10.275Z,9.90
2018-10-03T20:36:38.373Z,9.90
2018-10-03T20:39:07.351Z,9.90
2018-10-03T20:41:35.496Z,9.90
2018-10-03T20:44:03.775Z,9.90
2018-10-03T20:46:32.483Z,10.00
2018-10-03T20:49:00.498Z,9.90
2018-10-03T20:51:28.811Z,10.00
2018-10-03T20:53:56.890Z,10.00
2018-10-03T20:56:24.926Z,10.00
2018-10-03T20:58:53.206Z,9.90
2018-10-03T21:01:21.241Z,9.90
2018-10-03T21:03:49.346Z,9.90
2018-10-03T21:06:17.503Z,9.80
2018-10-03T21:08:45.630Z,9.80
2018-10-03T21:11:13.710Z,9.80
2018-10-03T21:13:41.791Z,9.80
2018-10-03T21:16:09.820Z,9.80
2018-10-03T21:18:38.236Z,9.80
2018-10-03T21:21:06.842Z,9.80
2018-10-03T21:23:34.880Z,9.80
2018-10-03T21:26:02.898Z,9.70
2018-10-03T21:28:31.090Z,9.70
2018-10-03T21:30:59.094Z,9.80
2018-10-03T21:33:27.286Z,9.70
2018-10-03T21:35:55.766Z,9.70
2018-10-03T21:38:23.813Z,9.70
2018-10-03T21:40:51.819Z,9.70
2018-10-03T21:43:19.875Z,9.60
2018-10-03T21:45:47.899Z,9.60
2018-10-03T21:48:15.937Z,9.60
2018-10-03T21:50:44.138Z,9.50
2018-10-03T21:53:13.046Z,9.50
2018-10-03T21:55:41.078Z,9.50
2018-10-03T21:58:09.116Z,9.50
2018-10-03T22:00:42.567Z,9.50
2018-10-03T22:03:10.623Z,9.50
2018-10-03T22:05:38.657Z,9.50
2018-10-03T22:08:06.645Z,9.50
2018-10-03T22:10:34.678Z,9.50
2018-10-03T22:13:02.708Z,9.50
2018-10-03T22:15:30.705Z,9.40
2018-10-03T22:17:58.879Z,9.40
2018-10-03T22:20:27.221Z,9.40
2018-10-03T22:22:55.346Z,9.40
2018-10-03T22:25:23.490Z,9.40
2018-10-03T22:27:51.595Z,9.40
2018-10-03T22:30:19.662Z,9.40
2018-10-03T22:32:47.734Z,9.40
2018-10-03T22:35:15.731Z,9.40
2018-10-03T22:37:43.710Z,9.30
2018-10-03T22:40:11.917Z,9.30
2018-10-03T22:42:39.924Z,9.30
2018-10-03T22:45:07.951Z,9.30
2018-10-03T22:47:36.027Z,9.30
2018-10-03T22:50:04.070Z,9.30
2018-10-03T22:52:32.055Z,9.30
2018-10-03T22:55:00.464Z,9.30
2018-10-03T22:57:28.467Z,9.30
2018-10-03T22:59:56.483Z,9.30
2018-10-03T23:02:24.571Z,9.30
2018-10-03T23:04:52.555Z,9.30
2018-10-03T23:07:20.566Z,9.30
2018-10-03T23:09:48.767Z,9.20
2018-10-03T23:12:16.772Z,9.30
2018-10-03T23:14:44.765Z,9.30
2018-10-03T23:17:12.811Z,9.30
2018-10-03T23:19:40.820Z,9.30
2018-10-03T23:22:09.100Z,9.30
2018-10-03T23:24:37.402Z,9.30
2018-10-03T23:27:05.574Z,9.30
2018-10-03T23:29:33.575Z,9.30
2018-10-03T23:32:01.805Z,9.30
2018-10-03T23:34:30.019Z,9.30
2018-10-03T23:36:58.061Z,9.30
2018-10-03T23:39:26.235Z,9.30
2018-10-03T23:41:54.398Z,9.20
2018-10-03T23:44:22.525Z,9.20
2018-10-03T23:46:50.592Z,9.20
2018-10-03T23:49:18.819Z,9.20
2018-10-03T23:51:46.819Z,9.20
2018-10-03T23:54:15.066Z,9.20
2018-10-03T23:56:43.144Z,9.30
2018-10-03T23:59:11.215Z,9.40
